sensor_id;sensor_type;location;lat;lon;timestamp;P1;durP1;ratioP1;P2;durP2;ratioP2
59922;SDS011;45778;51.142;3.732;2022-11-27T00:00:38;9.68;;;6.00;;
59922;SDS011;45778;51.142;3.732;2022-11-27T00:03:04;9.95;;;5.53;;
59922;SDS011;45778;51.142;3.732;2022-11-27T00:05:30;14.07;;;5.55;;
59922;SDS011;45778;51.142;3.732;2022-11-27T00:07:55;15.00;;;5.82;;
59922;SDS011;45778;51.142;3.732;2022-11-27T00:10:21;11.13;;;5.75;;
59922;SDS011;45778;51.142;3.732;2022-11-27T00:12:47;11.38;;;5.90;;
59922;SDS011;45778;51.142;3.732;2022-11-27T00:15:13;9.38;;;5.05;;
59922;SDS011;45778;51.142;3.732;2022-11-27T00:17:39;9.30;;;4.85;;
59922;SDS011;45778;51.142;3.732;2022-11-27T00:20:05;10.90;;;5.50;;
59922;SDS011;45778;51.142;3.732;2022-11-27T00:22:31;12.32;;;5.43;;
59922;SDS011;45778;51.142;3.732;2022-11-27T00:24:57;9.30;;;5.00;;
59922;SDS011;45778;51.142;3.732;2022-11-27T00:27:22;10.23;;;5.25;;
59922;SDS011;45778;51.142;3.732;2022-11-27T00:29:48;8.90;;;4.88;;
59922;SDS011;45778;51.142;3.732;2022-11-27T00:32:14;11.35;;;5.07;;
59922;SDS011;45778;51.142;3.732;2022-11-27T00:34:40;8.80;;;4.38;;
59922;SDS011;45778;51.142;3.732;2022-11-27T00:37:06;12.23;;;5.95;;
59922;SDS011;45778;51.142;3.732;2022-11-27T00:39:31;7.32;;;4.50;;
59922;SDS011;45778;51.142;3.732;2022-11-27T00:41:58;10.23;;;5.07;;
59922;SDS011;45778;51.142;3.732;2022-11-27T00:44:23;9.88;;;5.50;;
59922;SDS011;45778;51.142;3.732;2022-11-27T00:46:49;11.50;;;5.50;;
59922;SDS011;45778;51.142;3.732;2022-11-27T00:49:15;11.80;;;5.00;;
59922;SDS011;45778;51.142;3.732;2022-11-27T00:51:41;15.77;;;5.40;;
59922;SDS011;45778;51.142;3.732;2022-11-27T00:54:07;12.10;;;4.70;;
59922;SDS011;45778;51.142;3.732;2022-11-27T00:56:35;10.15;;;4.50;;
59922;SDS011;45778;51.142;3.732;2022-11-27T00:59:02;13.23;;;4.75;;
59922;SDS011;45778;51.142;3.732;2022-11-27T01:01:33;11.30;;;4.20;;
59922;SDS011;45778;51.142;3.732;2022-11-27T01:04:04;14.30;;;4.55;;
59922;SDS011;45778;51.142;3.732;2022-11-27T01:06:30;6.50;;;4.20;;
59922;SDS011;45778;51.142;3.732;2022-11-27T01:08:56;7.03;;;3.45;;
59922;SDS011;45778;51.142;3.732;2022-11-27T01:11:24;10.18;;;3.80;;
59922;SDS011;45778;51.142;3.732;2022-11-27T01:13:52;8.55;;;4.00;;
59922;SDS011;45778;51.142;3.732;2022-11-27T01:16:20;9.93;;;4.10;;
59922;SDS011;45778;51.142;3.732;2022-11-27T01:18:48;9.02;;;4.40;;
59922;SDS011;45778;51.142;3.732;2022-11-27T01:21:16;11.43;;;3.95;;
59922;SDS011;45778;51.142;3.732;2022-11-27T01:23:43;9.98;;;4.03;;
59922;SDS011;45778;51.142;3.732;2022-11-27T01:26:09;14.48;;;4.57;;
59922;SDS011;45778;51.142;3.732;2022-11-27T01:28:36;12.07;;;4.40;;
59922;SDS011;45778;51.142;3.732;2022-11-27T01:31:04;11.65;;;4.97;;
59922;SDS011;45778;51.142;3.732;2022-11-27T01:33:31;9.68;;;3.72;;
59922;SDS011;45778;51.142;3.732;2022-11-27T01:35:58;9.88;;;3.83;;
59922;SDS011;45778;51.142;3.732;2022-11-27T01:38:25;9.95;;;4.40;;
59922;SDS011;45778;51.142;3.732;2022-11-27T01:40:58;9.07;;;4.40;;
59922;SDS011;45778;51.142;3.732;2022-11-27T01:43:45;9.73;;;4.40;;
59922;SDS011;45778;51.142;3.732;2022-11-27T01:49:21;12.40;;;4.43;;
59922;SDS011;45778;51.142;3.732;2022-11-27T01:54:31;10.82;;;4.00;;
59922;SDS011;45778;51.142;3.732;2022-11-27T01:57:04;9.35;;;3.55;;
59922;SDS011;45778;51.142;3.732;2022-11-27T01:59:35;12.27;;;3.70;;
59922;SDS011;45778;51.142;3.732;2022-11-27T02:02:01;9.73;;;4.20;;
59922;SDS011;45778;51.142;3.732;2022-11-27T02:04:28;11.43;;;3.88;;
59922;SDS011;45778;51.142;3.732;2022-11-27T02:06:55;12.30;;;3.78;;
59922;SDS011;45778;51.142;3.732;2022-11-27T02:09:24;15.57;;;5.68;;
59922;SDS011;45778;51.142;3.732;2022-11-27T02:12:03;8.38;;;3.00;;
59922;SDS011;45778;51.142;3.732;2022-11-27T02:20:16;14.35;;;4.43;;
59922;SDS011;45778;51.142;3.732;2022-11-27T02:25:41;10.32;;;3.80;;
59922;SDS011;45778;51.142;3.732;2022-11-27T02:31:16;13.70;;;3.45;;
59922;SDS011;45778;51.142;3.732;2022-11-27T02:33:48;15.15;;;4.65;;
59922;SDS011;45778;51.142;3.732;2022-11-27T02:36:18;10.65;;;3.08;;
59922;SDS011;45778;51.142;3.732;2022-11-27T02:41:48;14.40;;;3.42;;
59922;SDS011;45778;51.142;3.732;2022-11-27T02:44:19;14.10;;;3.20;;
59922;SDS011;45778;51.142;3.732;2022-11-27T02:46:46;10.65;;;3.58;;
59922;SDS011;45778;51.142;3.732;2022-11-27T02:49:14;13.07;;;3.53;;
59922;SDS011;45778;51.142;3.732;2022-11-27T02:51:43;9.65;;;3.88;;
59922;SDS011;45778;51.142;3.732;2022-11-27T02:54:14;13.60;;;3.97;;
59922;SDS011;45778;51.142;3.732;2022-11-27T02:56:44;14.43;;;3.80;;
59922;SDS011;45778;51.142;3.732;2022-11-27T02:59:12;14.00;;;4.07;;
59922;SDS011;45778;51.142;3.732;2022-11-27T03:01:41;12.65;;;4.50;;
59922;SDS011;45778;51.142;3.732;2022-11-27T03:04:16;11.25;;;4.07;;
59922;SDS011;45778;51.142;3.732;2022-11-27T03:06:47;15.50;;;4.95;;
59922;SDS011;45778;51.142;3.732;2022-11-27T03:09:19;12.25;;;4.45;;
59922;SDS011;45778;51.142;3.732;2022-11-27T03:11:50;14.45;;;4.13;;
59922;SDS011;45778;51.142;3.732;2022-11-27T03:14:16;11.98;;;4.05;;
59922;SDS011;45778;51.142;3.732;2022-11-27T03:22:22;11.32;;;3.50;;
59922;SDS011;45778;51.142;3.732;2022-11-27T03:24:48;14.27;;;4.15;;
59922;SDS011;45778;51.142;3.732;2022-11-27T03:27:14;18.98;;;4.45;;
59922;SDS011;45778;51.142;3.732;2022-11-27T03:29:46;14.43;;;3.90;;
59922;SDS011;45778;51.142;3.732;2022-11-27T03:32:24;19.10;;;4.85;;
59922;SDS011;45778;51.142;3.732;2022-11-27T03:34:51;10.85;;;3.70;;
59922;SDS011;45778;51.142;3.732;2022-11-27T03:37:17;12.40;;;3.90;;
59922;SDS011;45778;51.142;3.732;2022-11-27T03:39:43;15.52;;;4.07;;
59922;SDS011;45778;51.142;3.732;2022-11-27T03:56:55;12.48;;;3.25;;
59922;SDS011;45778;51.142;3.732;2022-11-27T03:59:27;11.27;;;2.60;;
59922;SDS011;45778;51.142;3.732;2022-11-27T04:01:56;10.75;;;2.88;;
59922;SDS011;45778;51.142;3.732;2022-11-27T04:04:22;12.20;;;3.45;;
59922;SDS011;45778;51.142;3.732;2022-11-27T04:06:48;8.85;;;3.10;;
59922;SDS011;45778;51.142;3.732;2022-11-27T04:09:14;12.23;;;3.60;;
59922;SDS011;45778;51.142;3.732;2022-11-27T04:11:39;11.00;;;3.67;;
59922;SDS011;45778;51.142;3.732;2022-11-27T04:14:05;14.38;;;3.20;;
59922;SDS011;45778;51.142;3.732;2022-11-27T04:16:31;9.00;;;3.50;;
59922;SDS011;45778;51.142;3.732;2022-11-27T04:18:56;7.93;;;2.92;;
59922;SDS011;45778;51.142;3.732;2022-11-27T04:21:22;7.25;;;2.88;;
59922;SDS011;45778;51.142;3.732;2022-11-27T04:23:48;9.07;;;2.90;;
59922;SDS011;45778;51.142;3.732;2022-11-27T04:26:13;11.63;;;3.42;;
59922;SDS011;45778;51.142;3.732;2022-11-27T04:28:39;7.68;;;2.55;;
59922;SDS011;45778;51.142;3.732;2022-11-27T04:31:05;9.43;;;2.80;;
59922;SDS011;45778;51.142;3.732;2022-11-27T04:33:30;10.00;;;3.55;;
59922;SDS011;45778;51.142;3.732;2022-11-27T04:35:56;8.75;;;3.20;;
59922;SDS011;45778;51.142;3.732;2022-11-27T04:38:22;9.70;;;3.03;;
59922;SDS011;45778;51.142;3.732;2022-11-27T04:40:49;13.43;;;2.75;;
59922;SDS011;45778;51.142;3.732;2022-11-27T04:43:17;11.95;;;3.25;;
59922;SDS011;45778;51.142;3.732;2022-11-27T04:45:43;14.60;;;3.72;;
59922;SDS011;45778;51.142;3.732;2022-11-27T04:48:09;7.68;;;3.22;;
59922;SDS011;45778;51.142;3.732;2022-11-27T04:50:34;13.88;;;3.03;;
59922;SDS011;45778;51.142;3.732;2022-11-27T04:53:00;7.43;;;2.75;;
59922;SDS011;45778;51.142;3.732;2022-11-27T04:55:26;7.88;;;2.85;;
59922;SDS011;45778;51.142;3.732;2022-11-27T04:57:51;9.15;;;2.65;;
59922;SDS011;45778;51.142;3.732;2022-11-27T05:00:17;10.50;;;2.45;;
59922;SDS011;45778;51.142;3.732;2022-11-27T05:02:43;11.95;;;3.05;;
59922;SDS011;45778;51.142;3.732;2022-11-27T05:05:09;10.07;;;2.90;;
59922;SDS011;45778;51.142;3.732;2022-11-27T05:07:35;10.15;;;3.38;;
59922;SDS011;45778;51.142;3.732;2022-11-27T05:10:01;9.20;;;2.90;;
59922;SDS011;45778;51.142;3.732;2022-11-27T05:12:27;6.53;;;2.70;;
59922;SDS011;45778;51.142;3.732;2022-11-27T05:14:52;6.15;;;2.50;;
59922;SDS011;45778;51.142;3.732;2022-11-27T05:17:18;8.30;;;2.83;;
59922;SDS011;45778;51.142;3.732;2022-11-27T05:19:44;9.30;;;2.97;;
59922;SDS011;45778;51.142;3.732;2022-11-27T05:22:09;11.75;;;3.40;;
59922;SDS011;45778;51.142;3.732;2022-11-27T05:24:35;5.85;;;3.08;;
59922;SDS011;45778;51.142;3.732;2022-11-27T05:27:01;11.85;;;2.72;;
59922;SDS011;45778;51.142;3.732;2022-11-27T05:29:26;8.10;;;3.90;;
59922;SDS011;45778;51.142;3.732;2022-11-27T05:31:52;13.63;;;3.58;;
59922;SDS011;45778;51.142;3.732;2022-11-27T05:34:18;8.35;;;2.80;;
59922;SDS011;45778;51.142;3.732;2022-11-27T05:36:44;7.72;;;3.10;;
59922;SDS011;45778;51.142;3.732;2022-11-27T05:39:09;10.48;;;3.67;;
59922;SDS011;45778;51.142;3.732;2022-11-27T05:41:36;8.95;;;3.15;;
59922;SDS011;45778;51.142;3.732;2022-11-27T05:44:03;8.07;;;2.55;;
59922;SDS011;45778;51.142;3.732;2022-11-27T05:46:29;13.45;;;3.22;;
59922;SDS011;45778;51.142;3.732;2022-11-27T05:48:55;11.68;;;3.85;;
59922;SDS011;45778;51.142;3.732;2022-11-27T05:51:20;7.80;;;3.28;;
59922;SDS011;45778;51.142;3.732;2022-11-27T05:53:46;9.45;;;2.88;;
59922;SDS011;45778;51.142;3.732;2022-11-27T05:56:13;11.35;;;2.95;;
59922;SDS011;45778;51.142;3.732;2022-11-27T05:58:41;8.57;;;2.65;;
59922;SDS011;45778;51.142;3.732;2022-11-27T06:01:08;8.25;;;3.10;;
59922;SDS011;45778;51.142;3.732;2022-11-27T06:03:36;9.77;;;2.85;;
59922;SDS011;45778;51.142;3.732;2022-11-27T06:06:10;10.48;;;2.78;;
59922;SDS011;45778;51.142;3.732;2022-11-27T06:08:39;11.80;;;4.25;;
59922;SDS011;45778;51.142;3.732;2022-11-27T06:11:09;11.38;;;3.40;;
59922;SDS011;45778;51.142;3.732;2022-11-27T06:13:39;8.80;;;2.67;;
59922;SDS011;45778;51.142;3.732;2022-11-27T06:16:15;10.20;;;3.40;;
59922;SDS011;45778;51.142;3.732;2022-11-27T06:18:43;8.82;;;3.28;;
59922;SDS011;45778;51.142;3.732;2022-11-27T06:21:10;10.20;;;3.55;;
59922;SDS011;45778;51.142;3.732;2022-11-27T06:23:37;11.50;;;2.88;;
59922;SDS011;45778;51.142;3.732;2022-11-27T06:28:45;10.63;;;2.72;;
59922;SDS011;45778;51.142;3.732;2022-11-27T06:31:13;9.38;;;2.92;;
59922;SDS011;45778;51.142;3.732;2022-11-27T06:33:41;13.20;;;3.33;;
59922;SDS011;45778;51.142;3.732;2022-11-27T06:36:07;6.25;;;2.60;;
59922;SDS011;45778;51.142;3.732;2022-11-27T06:38:33;10.18;;;3.55;;
59922;SDS011;45778;51.142;3.732;2022-11-27T06:41:10;13.68;;;3.58;;
59922;SDS011;45778;51.142;3.732;2022-11-27T06:43:38;9.48;;;3.20;;
59922;SDS011;45778;51.142;3.732;2022-11-27T06:46:04;11.35;;;4.07;;
59922;SDS011;45778;51.142;3.732;2022-11-27T06:48:31;13.00;;;5.22;;
59922;SDS011;45778;51.142;3.732;2022-11-27T06:51:01;11.85;;;3.42;;
59922;SDS011;45778;51.142;3.732;2022-11-27T06:53:28;10.07;;;3.58;;
59922;SDS011;45778;51.142;3.732;2022-11-27T06:55:55;12.80;;;3.90;;
59922;SDS011;45778;51.142;3.732;2022-11-27T06:58:21;8.73;;;3.75;;
59922;SDS011;45778;51.142;3.732;2022-11-27T07:00:47;7.25;;;3.40;;
59922;SDS011;45778;51.142;3.732;2022-11-27T07:03:13;7.80;;;3.33;;
59922;SDS011;45778;51.142;3.732;2022-11-27T07:05:39;11.55;;;3.47;;
59922;SDS011;45778;51.142;3.732;2022-11-27T07:08:04;11.20;;;3.13;;
59922;SDS011;45778;51.142;3.732;2022-11-27T07:10:34;10.77;;;3.35;;
59922;SDS011;45778;51.142;3.732;2022-11-27T07:13:00;12.43;;;4.20;;
59922;SDS011;45778;51.142;3.732;2022-11-27T07:15:26;7.35;;;3.75;;
59922;SDS011;45778;51.142;3.732;2022-11-27T07:17:52;11.45;;;3.58;;
59922;SDS011;45778;51.142;3.732;2022-11-27T07:20:18;7.85;;;3.20;;
59922;SDS011;45778;51.142;3.732;2022-11-27T07:22:43;11.77;;;3.70;;
59922;SDS011;45778;51.142;3.732;2022-11-27T07:25:09;8.48;;;3.42;;
59922;SDS011;45778;51.142;3.732;2022-11-27T07:27:35;11.10;;;3.65;;
59922;SDS011;45778;51.142;3.732;2022-11-27T07:30:00;9.75;;;3.45;;
59922;SDS011;45778;51.142;3.732;2022-11-27T07:32:26;7.78;;;3.53;;
59922;SDS011;45778;51.142;3.732;2022-11-27T07:34:52;8.07;;;3.70;;
59922;SDS011;45778;51.142;3.732;2022-11-27T07:37:17;9.18;;;3.72;;
59922;SDS011;45778;51.142;3.732;2022-11-27T07:39:43;6.97;;;3.67;;
59922;SDS011;45778;51.142;3.732;2022-11-27T07:42:08;11.68;;;3.83;;
59922;SDS011;45778;51.142;3.732;2022-11-27T07:44:34;10.07;;;3.95;;
59922;SDS011;45778;51.142;3.732;2022-11-27T07:47:00;10.95;;;3.40;;
59922;SDS011;45778;51.142;3.732;2022-11-27T07:49:25;11.23;;;4.00;;
59922;SDS011;45778;51.142;3.732;2022-11-27T07:51:51;9.82;;;3.38;;
59922;SDS011;45778;51.142;3.732;2022-11-27T07:54:17;10.00;;;3.97;;
59922;SDS011;45778;51.142;3.732;2022-11-27T07:56:42;9.82;;;3.90;;
59922;SDS011;45778;51.142;3.732;2022-11-27T07:59:08;8.35;;;3.92;;
59922;SDS011;45778;51.142;3.732;2022-11-27T08:01:34;13.80;;;4.07;;
59922;SDS011;45778;51.142;3.732;2022-11-27T08:03:59;11.63;;;3.97;;
59922;SDS011;45778;51.142;3.732;2022-11-27T08:06:25;9.60;;;3.80;;
59922;SDS011;45778;51.142;3.732;2022-11-27T08:08:52;9.93;;;3.70;;
59922;SDS011;45778;51.142;3.732;2022-11-27T08:11:24;8.55;;;3.75;;
59922;SDS011;45778;51.142;3.732;2022-11-27T08:13:57;11.68;;;4.40;;
59922;SDS011;45778;51.142;3.732;2022-11-27T08:16:26;7.22;;;3.53;;
59922;SDS011;45778;51.142;3.732;2022-11-27T08:18:52;11.40;;;3.63;;
59922;SDS011;45778;51.142;3.732;2022-11-27T08:21:18;9.15;;;3.63;;
59922;SDS011;45778;51.142;3.732;2022-11-27T08:23:44;9.82;;;3.80;;
59922;SDS011;45778;51.142;3.732;2022-11-27T08:26:10;6.43;;;3.13;;
59922;SDS011;45778;51.142;3.732;2022-11-27T08:28:37;7.60;;;3.72;;
59922;SDS011;45778;51.142;3.732;2022-11-27T08:31:03;11.50;;;3.95;;
59922;SDS011;45778;51.142;3.732;2022-11-27T08:33:30;12.15;;;4.70;;
59922;SDS011;45778;51.142;3.732;2022-11-27T08:35:57;8.52;;;4.25;;
59922;SDS011;45778;51.142;3.732;2022-11-27T08:38:22;8.80;;;3.83;;
59922;SDS011;45778;51.142;3.732;2022-11-27T08:40:52;11.32;;;4.13;;
59922;SDS011;45778;51.142;3.732;2022-11-27T08:45:48;7.63;;;4.15;;
59922;SDS011;45778;51.142;3.732;2022-11-27T08:48:13;6.10;;;3.50;;
59922;SDS011;45778;51.142;3.732;2022-11-27T08:50:39;9.23;;;4.00;;
59922;SDS011;45778;51.142;3.732;2022-11-27T08:53:05;8.60;;;3.88;;
59922;SDS011;45778;51.142;3.732;2022-11-27T08:55:30;8.98;;;4.47;;
59922;SDS011;45778;51.142;3.732;2022-11-27T08:57:56;8.43;;;3.88;;
59922;SDS011;45778;51.142;3.732;2022-11-27T09:00:22;11.70;;;4.97;;
59922;SDS011;45778;51.142;3.732;2022-11-27T09:02:47;8.65;;;4.50;;
59922;SDS011;45778;51.142;3.732;2022-11-27T09:05:13;11.65;;;6.13;;
59922;SDS011;45778;51.142;3.732;2022-11-27T09:07:39;10.30;;;4.80;;
59922;SDS011;45778;51.142;3.732;2022-11-27T09:10:07;11.35;;;5.05;;
59922;SDS011;45778;51.142;3.732;2022-11-27T09:12:33;10.40;;;4.93;;
59922;SDS011;45778;51.142;3.732;2022-11-27T09:14:59;8.75;;;4.72;;
59922;SDS011;45778;51.142;3.732;2022-11-27T09:17:25;8.82;;;4.38;;
59922;SDS011;45778;51.142;3.732;2022-11-27T09:19:50;9.43;;;5.72;;
59922;SDS011;45778;51.142;3.732;2022-11-27T09:22:16;8.52;;;4.88;;
59922;SDS011;45778;51.142;3.732;2022-11-27T09:24:42;10.43;;;5.57;;
59922;SDS011;45778;51.142;3.732;2022-11-27T09:27:08;7.45;;;4.63;;
59922;SDS011;45778;51.142;3.732;2022-11-27T09:29:34;14.30;;;5.82;;
59922;SDS011;45778;51.142;3.732;2022-11-27T09:31:59;11.90;;;6.05;;
59922;SDS011;45778;51.142;3.732;2022-11-27T09:34:25;11.82;;;5.28;;
59922;SDS011;45778;51.142;3.732;2022-11-27T09:36:51;9.00;;;5.38;;
59922;SDS011;45778;51.142;3.732;2022-11-27T09:39:17;12.15;;;5.47;;
59922;SDS011;45778;51.142;3.732;2022-11-27T09:44:27;9.38;;;5.45;;
59922;SDS011;45778;51.142;3.732;2022-11-27T09:47:05;8.85;;;5.07;;
59922;SDS011;45778;51.142;3.732;2022-11-27T09:49:43;10.80;;;6.22;;
59922;SDS011;45778;51.142;3.732;2022-11-27T09:52:16;9.65;;;5.47;;
59922;SDS011;45778;51.142;3.732;2022-11-27T09:55:09;16.80;;;6.10;;
59922;SDS011;45778;51.142;3.732;2022-11-27T10:00:18;13.82;;;6.22;;
59922;SDS011;45778;51.142;3.732;2022-11-27T10:02:44;11.43;;;5.47;;
59922;SDS011;45778;51.142;3.732;2022-11-27T10:05:17;10.65;;;6.95;;
59922;SDS011;45778;51.142;3.732;2022-11-27T10:10:28;11.07;;;5.57;;
59922;SDS011;45778;51.142;3.732;2022-11-27T10:13:09;10.00;;;5.57;;
59922;SDS011;45778;51.142;3.732;2022-11-27T10:15:57;10.83;;;4.87;;
59922;SDS011;45778;51.142;3.732;2022-11-27T10:18:39;10.18;;;5.50;;
59922;SDS011;45778;51.142;3.732;2022-11-27T10:21:24;8.10;;;5.78;;
59922;SDS011;45778;51.142;3.732;2022-11-27T10:32:29;11.95;;;5.55;;
59922;SDS011;45778;51.142;3.732;2022-11-27T10:35:01;10.10;;;5.35;;
59922;SDS011;45778;51.142;3.732;2022-11-27T10:43:00;9.35;;;6.25;;
59922;SDS011;45778;51.142;3.732;2022-11-27T10:48:15;12.50;;;6.10;;
59922;SDS011;45778;51.142;3.732;2022-11-27T10:50:41;9.52;;;5.65;;
59922;SDS011;45778;51.142;3.732;2022-11-27T10:53:10;12.18;;;6.00;;
59922;SDS011;45778;51.142;3.732;2022-11-27T10:55:51;10.65;;;5.40;;
59922;SDS011;45778;51.142;3.732;2022-11-27T10:58:33;11.10;;;5.13;;
59922;SDS011;45778;51.142;3.732;2022-11-27T11:01:13;10.55;;;5.25;;
59922;SDS011;45778;51.142;3.732;2022-11-27T11:03:41;10.60;;;5.97;;
59922;SDS011;45778;51.142;3.732;2022-11-27T11:06:24;8.63;;;5.32;;
59922;SDS011;45778;51.142;3.732;2022-11-27T11:09:02;12.32;;;5.22;;
59922;SDS011;45778;51.142;3.732;2022-11-27T11:11:31;10.05;;;5.28;;
59922;SDS011;45778;51.142;3.732;2022-11-27T11:13:57;13.95;;;8.07;;
59922;SDS011;45778;51.142;3.732;2022-11-27T11:16:24;10.20;;;6.00;;
59922;SDS011;45778;51.142;3.732;2022-11-27T11:18:55;15.60;;;7.82;;
59922;SDS011;45778;51.142;3.732;2022-11-27T11:21:24;9.45;;;4.32;;
59922;SDS011;45778;51.142;3.732;2022-11-27T11:24:04;9.82;;;4.63;;
59922;SDS011;45778;51.142;3.732;2022-11-27T11:26:38;11.23;;;4.85;;
59922;SDS011;45778;51.142;3.732;2022-11-27T11:31:50;9.98;;;5.40;;
59922;SDS011;45778;51.142;3.732;2022-11-27T11:34:20;13.50;;;5.75;;
59922;SDS011;45778;51.142;3.732;2022-11-27T11:36:54;7.18;;;4.93;;
59922;SDS011;45778;51.142;3.732;2022-11-27T11:39:24;14.95;;;5.97;;
59922;SDS011;45778;51.142;3.732;2022-11-27T11:41:53;8.98;;;4.72;;
59922;SDS011;45778;51.142;3.732;2022-11-27T11:44:24;9.30;;;5.10;;
59922;SDS011;45778;51.142;3.732;2022-11-27T11:47:01;11.00;;;5.80;;
59922;SDS011;45778;51.142;3.732;2022-11-27T11:49:27;11.65;;;5.90;;
59922;SDS011;45778;51.142;3.732;2022-11-27T12:00:20;11.85;;;5.50;;
59922;SDS011;45778;51.142;3.732;2022-11-27T12:02:57;7.90;;;4.88;;
59922;SDS011;45778;51.142;3.732;2022-11-27T12:08:33;10.18;;;5.50;;
59922;SDS011;45778;51.142;3.732;2022-11-27T12:11:19;10.50;;;5.63;;
59922;SDS011;45778;51.142;3.732;2022-11-27T12:14:15;12.30;;;5.20;;
59922;SDS011;45778;51.142;3.732;2022-11-27T12:25:36;10.35;;;4.53;;
59922;SDS011;45778;51.142;3.732;2022-11-27T12:33:39;13.07;;;4.93;;
59922;SDS011;45778;51.142;3.732;2022-11-27T12:41:43;10.38;;;5.00;;
59922;SDS011;45778;51.142;3.732;2022-11-27T12:50:03;11.73;;;5.47;;
59922;SDS011;45778;51.142;3.732;2022-11-27T12:53:01;8.68;;;4.35;;
59922;SDS011;45778;51.142;3.732;2022-11-27T12:58:45;10.80;;;3.92;;
59922;SDS011;45778;51.142;3.732;2022-11-27T13:01:16;8.73;;;4.47;;
59922;SDS011;45778;51.142;3.732;2022-11-27T13:04:04;9.43;;;4.15;;
59922;SDS011;45778;51.142;3.732;2022-11-27T13:06:52;9.88;;;4.50;;
59922;SDS011;45778;51.142;3.732;2022-11-27T13:09:41;7.15;;;4.07;;
59922;SDS011;45778;51.142;3.732;2022-11-27T13:15:23;8.48;;;3.70;;
59922;SDS011;45778;51.142;3.732;2022-11-27T13:17:59;8.35;;;3.67;;
59922;SDS011;45778;51.142;3.732;2022-11-27T13:20:42;6.75;;;3.92;;
59922;SDS011;45778;51.142;3.732;2022-11-27T13:23:09;8.77;;;4.38;;
59922;SDS011;45778;51.142;3.732;2022-11-27T13:25:39;6.70;;;4.15;;
59922;SDS011;45778;51.142;3.732;2022-11-27T13:28:12;5.75;;;3.78;;
59922;SDS011;45778;51.142;3.732;2022-11-27T13:31:01;9.05;;;4.43;;
59922;SDS011;45778;51.142;3.732;2022-11-27T13:33:40;7.40;;;4.88;;
59922;SDS011;45778;51.142;3.732;2022-11-27T13:36:18;9.73;;;4.38;;
59922;SDS011;45778;51.142;3.732;2022-11-27T13:38:57;9.07;;;4.22;;
59922;SDS011;45778;51.142;3.732;2022-11-27T13:41:37;11.02;;;4.85;;
59922;SDS011;45778;51.142;3.732;2022-11-27T13:46:50;9.57;;;5.15;;
59922;SDS011;45778;51.142;3.732;2022-11-27T13:49:25;9.02;;;4.68;;
59922;SDS011;45778;51.142;3.732;2022-11-27T13:54:30;8.88;;;5.95;;
59922;SDS011;45778;51.142;3.732;2022-11-27T13:56:56;8.57;;;5.47;;
59922;SDS011;45778;51.142;3.732;2022-11-27T13:59:37;16.17;;;7.43;;
59922;SDS011;45778;51.142;3.732;2022-11-27T14:02:05;12.05;;;6.50;;
59922;SDS011;45778;51.142;3.732;2022-11-27T14:04:32;8.77;;;5.72;;
59922;SDS011;45778;51.142;3.732;2022-11-27T14:06:59;13.07;;;6.78;;
59922;SDS011;45778;51.142;3.732;2022-11-27T14:09:39;12.05;;;6.85;;
59922;SDS011;45778;51.142;3.732;2022-11-27T14:12:21;12.50;;;7.35;;
59922;SDS011;45778;51.142;3.732;2022-11-27T14:14:58;10.48;;;5.80;;
59922;SDS011;45778;51.142;3.732;2022-11-27T14:25:42;8.88;;;4.45;;
59922;SDS011;45778;51.142;3.732;2022-11-27T14:30:54;10.63;;;5.63;;
59922;SDS011;45778;51.142;3.732;2022-11-27T14:33:22;12.32;;;5.38;;
59922;SDS011;45778;51.142;3.732;2022-11-27T14:35:56;8.88;;;4.97;;
59922;SDS011;45778;51.142;3.732;2022-11-27T14:38:24;6.93;;;3.85;;
59922;SDS011;45778;51.142;3.732;2022-11-27T14:40:52;9.20;;;5.05;;
59922;SDS011;45778;51.142;3.732;2022-11-27T14:43:22;11.35;;;5.40;;
59922;SDS011;45778;51.142;3.732;2022-11-27T14:45:53;11.77;;;4.53;;
59922;SDS011;45778;51.142;3.732;2022-11-27T14:48:25;8.23;;;4.90;;
59922;SDS011;45778;51.142;3.732;2022-11-27T14:51:18;10.00;;;5.18;;
59922;SDS011;45778;51.142;3.732;2022-11-27T14:53:47;9.20;;;4.60;;
59922;SDS011;45778;51.142;3.732;2022-11-27T14:56:15;8.27;;;4.60;;
59922;SDS011;45778;51.142;3.732;2022-11-27T14:58:46;13.85;;;6.13;;
59922;SDS011;45778;51.142;3.732;2022-11-27T15:01:21;6.68;;;4.80;;
59922;SDS011;45778;51.142;3.732;2022-11-27T15:03:57;9.43;;;4.78;;
59922;SDS011;45778;51.142;3.732;2022-11-27T15:06:25;8.75;;;5.78;;
59922;SDS011;45778;51.142;3.732;2022-11-27T15:08:57;11.82;;;5.60;;
59922;SDS011;45778;51.142;3.732;2022-11-27T15:11:22;6.97;;;4.35;;
59922;SDS011;45778;51.142;3.732;2022-11-27T15:13:50;8.25;;;4.47;;
59922;SDS011;45778;51.142;3.732;2022-11-27T15:16:23;6.45;;;4.38;;
59922;SDS011;45778;51.142;3.732;2022-11-27T15:18:53;8.70;;;4.95;;
59922;SDS011;45778;51.142;3.732;2022-11-27T15:21:22;12.05;;;5.68;;
59922;SDS011;45778;51.142;3.732;2022-11-27T15:23:49;11.18;;;5.93;;
59922;SDS011;45778;51.142;3.732;2022-11-27T15:26:30;12.15;;;5.88;;
59922;SDS011;45778;51.142;3.732;2022-11-27T15:29:04;11.68;;;5.65;;
59922;SDS011;45778;51.142;3.732;2022-11-27T15:32:13;8.93;;;5.40;;
59922;SDS011;45778;51.142;3.732;2022-11-27T15:34:44;9.27;;;5.40;;
59922;SDS011;45778;51.142;3.732;2022-11-27T15:39:52;8.10;;;5.03;;
59922;SDS011;45778;51.142;3.732;2022-11-27T15:42:20;7.32;;;5.43;;
59922;SDS011;45778;51.142;3.732;2022-11-27T15:44:47;11.13;;;6.88;;
59922;SDS011;45778;51.142;3.732;2022-11-27T15:47:27;6.35;;;5.30;;
59922;SDS011;45778;51.142;3.732;2022-11-27T15:49:55;11.77;;;6.22;;
59922;SDS011;45778;51.142;3.732;2022-11-27T15:52:21;7.13;;;4.95;;
59922;SDS011;45778;51.142;3.732;2022-11-27T15:54:48;8.32;;;5.78;;
59922;SDS011;45778;51.142;3.732;2022-11-27T15:57:14;9.00;;;4.88;;
59922;SDS011;45778;51.142;3.732;2022-11-27T15:59:40;10.63;;;6.15;;
59922;SDS011;45778;51.142;3.732;2022-11-27T16:02:06;13.15;;;6.72;;
59922;SDS011;45778;51.142;3.732;2022-11-27T16:04:34;8.30;;;4.95;;
59922;SDS011;45778;51.142;3.732;2022-11-27T16:06:59;10.05;;;6.75;;
59922;SDS011;45778;51.142;3.732;2022-11-27T16:09:25;8.85;;;6.35;;
59922;SDS011;45778;51.142;3.732;2022-11-27T16:11:52;10.90;;;6.05;;
59922;SDS011;45778;51.142;3.732;2022-11-27T16:14:17;9.43;;;6.28;;
59922;SDS011;45778;51.142;3.732;2022-11-27T16:16:43;14.07;;;7.28;;
59922;SDS011;45778;51.142;3.732;2022-11-27T16:19:09;9.15;;;6.28;;
59922;SDS011;45778;51.142;3.732;2022-11-27T16:21:36;15.02;;;6.95;;
59922;SDS011;45778;51.142;3.732;2022-11-27T16:24:05;14.20;;;7.00;;
59922;SDS011;45778;51.142;3.732;2022-11-27T16:26:33;14.43;;;7.97;;
59922;SDS011;45778;51.142;3.732;2022-11-27T16:29:00;12.73;;;7.70;;
59922;SDS011;45778;51.142;3.732;2022-11-27T16:31:26;10.63;;;6.95;;
59922;SDS011;45778;51.142;3.732;2022-11-27T16:33:52;13.65;;;7.15;;
59922;SDS011;45778;51.142;3.732;2022-11-27T16:36:18;12.30;;;6.88;;
59922;SDS011;45778;51.142;3.732;2022-11-27T16:38:44;11.95;;;7.82;;
59922;SDS011;45778;51.142;3.732;2022-11-27T16:41:11;15.38;;;8.82;;
59922;SDS011;45778;51.142;3.732;2022-11-27T16:43:40;15.00;;;7.72;;
59922;SDS011;45778;51.142;3.732;2022-11-27T16:46:21;12.80;;;8.35;;
59922;SDS011;45778;51.142;3.732;2022-11-27T16:48:49;15.68;;;7.22;;
59922;SDS011;45778;51.142;3.732;2022-11-27T16:53:43;16.50;;;7.50;;
59922;SDS011;45778;51.142;3.732;2022-11-27T16:56:11;12.43;;;6.82;;
59922;SDS011;45778;51.142;3.732;2022-11-27T16:58:39;17.75;;;8.07;;
59922;SDS011;45778;51.142;3.732;2022-11-27T17:01:07;11.82;;;7.38;;
59922;SDS011;45778;51.142;3.732;2022-11-27T17:03:34;10.80;;;7.32;;
59922;SDS011;45778;51.142;3.732;2022-11-27T17:06:05;13.52;;;8.02;;
59922;SDS011;45778;51.142;3.732;2022-11-27T17:08:35;15.15;;;8.52;;
59922;SDS011;45778;51.142;3.732;2022-11-27T17:11:11;9.35;;;5.88;;